sensor_id;sensor_type;location;lat;lon;timestamp;P1;durP1;ratioP1;P2;durP2;ratioP2
17436;SDS011;8836;52.272;5.134;2022-07-09T00:01:09;3.60;;;2.45;;
17436;SDS011;8836;52.272;5.134;2022-07-09T00:03:36;2.63;;;2.30;;
17436;SDS011;8836;52.272;5.134;2022-07-09T00:06:04;4.93;;;2.80;;
17436;SDS011;8836;52.272;5.134;2022-07-09T00:08:31;6.00;;;3.10;;
17436;SDS011;8836;52.272;5.134;2022-07-09T00:10:58;3.60;;;2.80;;
17436;SDS011;8836;52.272;5.134;2022-07-09T00:13:25;4.85;;;3.25;;
17436;SDS011;8836;52.272;5.134;2022-07-09T00:15:52;4.05;;;2.70;;
17436;SDS011;8836;52.272;5.134;2022-07-09T00:18:19;4.35;;;2.97;;
17436;SDS011;8836;52.272;5.134;2022-07-09T00:20:46;4.13;;;2.95;;
17436;SDS011;8836;52.272;5.134;2022-07-09T00:23:14;3.45;;;2.80;;
17436;SDS011;8836;52.272;5.134;2022-07-09T00:25:41;4.20;;;2.67;;
17436;SDS011;8836;52.272;5.134;2022-07-09T00:28:08;3.20;;;2.85;;
17436;SDS011;8836;52.272;5.134;2022-07-09T00:30:34;3.95;;;3.33;;
17436;SDS011;8836;52.272;5.134;2022-07-09T00:33:01;3.80;;;3.30;;
17436;SDS011;8836;52.272;5.134;2022-07-09T00:35:28;3.35;;;2.72;;
17436;SDS011;8836;52.272;5.134;2022-07-09T00:37:55;3.58;;;2.67;;
17436;SDS011;8836;52.272;5.134;2022-07-09T00:40:23;5.10;;;3.20;;
17436;SDS011;8836;52.272;5.134;2022-07-09T00:42:50;4.20;;;2.65;;
17436;SDS011;8836;52.272;5.134;2022-07-09T00:45:17;5.43;;;3.47;;
17436;SDS011;8836;52.272;5.134;2022-07-09T00:47:44;5.05;;;3.13;;
17436;SDS011;8836;52.272;5.134;2022-07-09T00:50:11;3.78;;;3.00;;
17436;SDS011;8836;52.272;5.134;2022-07-09T00:52:38;3.70;;;2.40;;
17436;SDS011;8836;52.272;5.134;2022-07-09T00:55:06;4.15;;;3.40;;
17436;SDS011;8836;52.272;5.134;2022-07-09T00:57:36;4.72;;;3.47;;
17436;SDS011;8836;52.272;5.134;2022-07-09T01:00:04;5.10;;;3.58;;
17436;SDS011;8836;52.272;5.134;2022-07-09T01:02:33;5.13;;;3.30;;
17436;SDS011;8836;52.272;5.134;2022-07-09T01:05:00;4.30;;;2.90;;
17436;SDS011;8836;52.272;5.134;2022-07-09T01:07:27;3.50;;;2.75;;
17436;SDS011;8836;52.272;5.134;2022-07-09T01:09:54;5.10;;;3.40;;
17436;SDS011;8836;52.272;5.134;2022-07-09T01:12:21;3.58;;;3.22;;
17436;SDS011;8836;52.272;5.134;2022-07-09T01:14:49;4.60;;;2.63;;
17436;SDS011;8836;52.272;5.134;2022-07-09T01:17:16;5.47;;;4.30;;
17436;SDS011;8836;52.272;5.134;2022-07-09T01:19:43;5.43;;;3.80;;
17436;SDS011;8836;52.272;5.134;2022-07-09T01:22:11;5.65;;;3.67;;
17436;SDS011;8836;52.272;5.134;2022-07-09T01:24:38;3.45;;;2.90;;
17436;SDS011;8836;52.272;5.134;2022-07-09T01:27:05;4.75;;;3.30;;
17436;SDS011;8836;52.272;5.134;2022-07-09T01:29:33;3.67;;;3.17;;
17436;SDS011;8836;52.272;5.134;2022-07-09T01:32:00;4.47;;;3.20;;
17436;SDS011;8836;52.272;5.134;2022-07-09T01:34:27;3.65;;;2.88;;
17436;SDS011;8836;52.272;5.134;2022-07-09T01:36:54;4.88;;;3.30;;
17436;SDS011;8836;52.272;5.134;2022-07-09T01:39:22;5.25;;;3.40;;
17436;SDS011;8836;52.272;5.134;2022-07-09T01:41:49;4.07;;;3.05;;
17436;SDS011;8836;52.272;5.134;2022-07-09T01:44:15;4.93;;;2.95;;
17436;SDS011;8836;52.272;5.134;2022-07-09T01:46:42;4.30;;;3.90;;
17436;SDS011;8836;52.272;5.134;2022-07-09T01:49:09;5.45;;;4.60;;
17436;SDS011;8836;52.272;5.134;2022-07-09T01:51:36;4.30;;;3.58;;
17436;SDS011;8836;52.272;5.134;2022-07-09T01:54:03;3.85;;;3.55;;
17436;SDS011;8836;52.272;5.134;2022-07-09T01:56:31;8.10;;;5.38;;
17436;SDS011;8836;52.272;5.134;2022-07-09T01:58:59;4.72;;;4.10;;
17436;SDS011;8836;52.272;5.134;2022-07-09T02:01:26;6.93;;;4.60;;
17436;SDS011;8836;52.272;5.134;2022-07-09T02:03:53;5.63;;;4.35;;
17436;SDS011;8836;52.272;5.134;2022-07-09T02:06:20;5.88;;;4.90;;
17436;SDS011;8836;52.272;5.134;2022-07-09T02:08:47;8.55;;;7.00;;
17436;SDS011;8836;52.272;5.134;2022-07-09T02:11:14;7.43;;;6.28;;
17436;SDS011;8836;52.272;5.134;2022-07-09T02:13:42;5.82;;;5.32;;
17436;SDS011;8836;52.272;5.134;2022-07-09T02:16:09;6.13;;;4.28;;
17436;SDS011;8836;52.272;5.134;2022-07-09T02:18:35;6.88;;;6.00;;
17436;SDS011;8836;52.272;5.134;2022-07-09T02:21:02;7.15;;;6.45;;
17436;SDS011;8836;52.272;5.134;2022-07-09T02:23:30;6.72;;;5.70;;
17436;SDS011;8836;52.272;5.134;2022-07-09T02:25:57;5.13;;;4.45;;
17436;SDS011;8836;52.272;5.134;2022-07-09T02:28:24;7.53;;;6.82;;
17436;SDS011;8836;52.272;5.134;2022-07-09T02:30:52;7.70;;;6.90;;
17436;SDS011;8836;52.272;5.134;2022-07-09T02:33:20;7.40;;;6.35;;
17436;SDS011;8836;52.272;5.134;2022-07-09T02:35:47;8.02;;;6.88;;
17436;SDS011;8836;52.272;5.134;2022-07-09T02:38:13;7.15;;;6.13;;
17436;SDS011;8836;52.272;5.134;2022-07-09T02:40:40;7.13;;;6.38;;
17436;SDS011;8836;52.272;5.134;2022-07-09T02:43:07;6.75;;;5.85;;
17436;SDS011;8836;52.272;5.134;2022-07-09T02:45:34;7.70;;;6.00;;
17436;SDS011;8836;52.272;5.134;2022-07-09T02:48:03;5.15;;;4.50;;
17436;SDS011;8836;52.272;5.134;2022-07-09T02:50:30;7.47;;;6.32;;
17436;SDS011;8836;52.272;5.134;2022-07-09T02:52:57;6.50;;;4.60;;
17436;SDS011;8836;52.272;5.134;2022-07-09T02:55:25;5.78;;;4.95;;
17436;SDS011;8836;52.272;5.134;2022-07-09T02:57:52;8.15;;;6.60;;
17436;SDS011;8836;52.272;5.134;2022-07-09T03:00:19;7.75;;;6.95;;
17436;SDS011;8836;52.272;5.134;2022-07-09T03:02:45;8.40;;;7.50;;
17436;SDS011;8836;52.272;5.134;2022-07-09T03:05:13;8.13;;;5.43;;
17436;SDS011;8836;52.272;5.134;2022-07-09T03:07:40;6.15;;;4.78;;
17436;SDS011;8836;52.272;5.134;2022-07-09T03:10:08;7.40;;;6.70;;
17436;SDS011;8836;52.272;5.134;2022-07-09T03:12:35;7.50;;;6.38;;
17436;SDS011;8836;52.272;5.134;2022-07-09T03:15:02;8.60;;;7.53;;
17436;SDS011;8836;52.272;5.134;2022-07-09T03:17:29;8.43;;;7.05;;
17436;SDS011;8836;52.272;5.134;2022-07-09T03:19:56;7.90;;;7.10;;
17436;SDS011;8836;52.272;5.134;2022-07-09T03:22:25;8.20;;;6.88;;
17436;SDS011;8836;52.272;5.134;2022-07-09T03:24:51;9.32;;;8.02;;
17436;SDS011;8836;52.272;5.134;2022-07-09T03:27:19;10.02;;;7.75;;
17436;SDS011;8836;52.272;5.134;2022-07-09T03:29:45;7.78;;;6.53;;
17436;SDS011;8836;52.272;5.134;2022-07-09T03:32:12;9.85;;;8.05;;
17436;SDS011;8836;52.272;5.134;2022-07-09T03:34:39;9.57;;;7.15;;
17436;SDS011;8836;52.272;5.134;2022-07-09T03:37:06;10.05;;;7.55;;
17436;SDS011;8836;52.272;5.134;2022-07-09T03:39:35;9.38;;;7.65;;
17436;SDS011;8836;52.272;5.134;2022-07-09T03:42:02;8.93;;;8.13;;
17436;SDS011;8836;52.272;5.134;2022-07-09T03:44:31;11.05;;;9.90;;
17436;SDS011;8836;52.272;5.134;2022-07-09T03:46:58;11.80;;;9.27;;
17436;SDS011;8836;52.272;5.134;2022-07-09T03:49:25;8.15;;;6.93;;
17436;SDS011;8836;52.272;5.134;2022-07-09T03:51:52;9.63;;;7.95;;
17436;SDS011;8836;52.272;5.134;2022-07-09T03:54:19;8.02;;;7.22;;
17436;SDS011;8836;52.272;5.134;2022-07-09T03:56:48;7.15;;;5.93;;
17436;SDS011;8836;52.272;5.134;2022-07-09T03:59:15;5.03;;;4.40;;
17436;SDS011;8836;52.272;5.134;2022-07-09T04:01:42;6.82;;;6.22;;
17436;SDS011;8836;52.272;5.134;2022-07-09T04:04:09;8.10;;;7.30;;
17436;SDS011;8836;52.272;5.134;2022-07-09T04:06:36;7.22;;;6.53;;
17436;SDS011;8836;52.272;5.134;2022-07-09T04:09:02;8.02;;;7.22;;
17436;SDS011;8836;52.272;5.134;2022-07-09T04:11:31;5.45;;;4.47;;
17436;SDS011;8836;52.272;5.134;2022-07-09T04:13:59;6.63;;;5.95;;
17436;SDS011;8836;52.272;5.134;2022-07-09T04:16:27;7.03;;;6.40;;
17436;SDS011;8836;52.272;5.134;2022-07-09T04:18:55;4.75;;;4.25;;
17436;SDS011;8836;52.272;5.134;2022-07-09T04:21:22;6.32;;;5.72;;
17436;SDS011;8836;52.272;5.134;2022-07-09T04:23:49;4.55;;;4.07;;
17436;SDS011;8836;52.272;5.134;2022-07-09T04:26:17;4.45;;;3.33;;
17436;SDS011;8836;52.272;5.134;2022-07-09T04:28:45;6.28;;;4.80;;
17436;SDS011;8836;52.272;5.134;2022-07-09T04:31:13;8.68;;;7.75;;
17436;SDS011;8836;52.272;5.134;2022-07-09T04:33:41;4.82;;;4.03;;
17436;SDS011;8836;52.272;5.134;2022-07-09T04:36:08;7.13;;;6.20;;
17436;SDS011;8836;52.272;5.134;2022-07-09T04:38:35;7.63;;;6.90;;
17436;SDS011;8836;52.272;5.134;2022-07-09T04:41:02;7.88;;;7.10;;
17436;SDS011;8836;52.272;5.134;2022-07-09T04:43:30;6.05;;;5.55;;
17436;SDS011;8836;52.272;5.134;2022-07-09T04:45:57;3.83;;;3.00;;
17436;SDS011;8836;52.272;5.134;2022-07-09T04:48:26;4.90;;;4.40;;
17436;SDS011;8836;52.272;5.134;2022-07-09T04:50:53;8.35;;;7.47;;
17436;SDS011;8836;52.272;5.134;2022-07-09T04:53:20;8.82;;;7.43;;
17436;SDS011;8836;52.272;5.134;2022-07-09T04:55:47;6.95;;;6.35;;
17436;SDS011;8836;52.272;5.134;2022-07-09T04:58:14;6.50;;;5.80;;
17436;SDS011;8836;52.272;5.134;2022-07-09T05:00:41;4.28;;;3.47;;
17436;SDS011;8836;52.272;5.134;2022-07-09T05:03:08;3.92;;;2.92;;
17436;SDS011;8836;52.272;5.134;2022-07-09T05:05:37;3.67;;;3.17;;
17436;SDS011;8836;52.272;5.134;2022-07-09T05:08:03;3.88;;;3.53;;
17436;SDS011;8836;52.272;5.134;2022-07-09T05:10:31;3.53;;;3.00;;
17436;SDS011;8836;52.272;5.134;2022-07-09T05:12:57;3.72;;;3.38;;
17436;SDS011;8836;52.272;5.134;2022-07-09T05:15:24;5.00;;;4.50;;
17436;SDS011;8836;52.272;5.134;2022-07-09T05:17:51;4.38;;;3.83;;
17436;SDS011;8836;52.272;5.134;2022-07-09T05:20:18;4.28;;;3.42;;
17436;SDS011;8836;52.272;5.134;2022-07-09T05:22:46;3.90;;;3.17;;
17436;SDS011;8836;52.272;5.134;2022-07-09T05:25:13;5.10;;;4.35;;
17436;SDS011;8836;52.272;5.134;2022-07-09T05:27:40;7.10;;;6.35;;
17436;SDS011;8836;52.272;5.134;2022-07-09T05:30:08;7.55;;;6.78;;
17436;SDS011;8836;52.272;5.134;2022-07-09T05:32:38;4.60;;;4.13;;
17436;SDS011;8836;52.272;5.134;2022-07-09T05:35:05;3.40;;;3.10;;
17436;SDS011;8836;52.272;5.134;2022-07-09T05:37:33;4.70;;;4.30;;
17436;SDS011;8836;52.272;5.134;2022-07-09T05:40:08;7.03;;;5.28;;
17436;SDS011;8836;52.272;5.134;2022-07-09T05:42:37;5.75;;;4.57;;
17436;SDS011;8836;52.272;5.134;2022-07-09T05:45:04;2.83;;;2.60;;
17436;SDS011;8836;52.272;5.134;2022-07-09T05:47:33;3.08;;;2.50;;
17436;SDS011;8836;52.272;5.134;2022-07-09T05:50:00;6.30;;;4.70;;
17436;SDS011;8836;52.272;5.134;2022-07-09T05:52:27;3.40;;;3.10;;
17436;SDS011;8836;52.272;5.134;2022-07-09T05:54:54;5.07;;;4.57;;
17436;SDS011;8836;52.272;5.134;2022-07-09T05:57:22;5.35;;;4.60;;
17436;SDS011;8836;52.272;5.134;2022-07-09T05:59:49;4.72;;;3.25;;
17436;SDS011;8836;52.272;5.134;2022-07-09T06:02:16;4.15;;;3.80;;
17436;SDS011;8836;52.272;5.134;2022-07-09T06:04:44;4.05;;;2.67;;
17436;SDS011;8836;52.272;5.134;2022-07-09T06:07:11;4.45;;;2.75;;
17436;SDS011;8836;52.272;5.134;2022-07-09T06:09:38;5.90;;;4.82;;
17436;SDS011;8836;52.272;5.134;2022-07-09T06:12:05;6.30;;;4.72;;
17436;SDS011;8836;52.272;5.134;2022-07-09T06:14:34;4.47;;;3.40;;
17436;SDS011;8836;52.272;5.134;2022-07-09T06:17:01;7.10;;;5.07;;
17436;SDS011;8836;52.272;5.134;2022-07-09T06:19:31;8.57;;;6.30;;
17436;SDS011;8836;52.272;5.134;2022-07-09T06:21:58;4.93;;;3.70;;
17436;SDS011;8836;52.272;5.134;2022-07-09T06:24:25;2.90;;;2.60;;
17436;SDS011;8836;52.272;5.134;2022-07-09T06:26:53;3.38;;;2.40;;
17436;SDS011;8836;52.272;5.134;2022-07-09T06:29:20;3.75;;;2.35;;
17436;SDS011;8836;52.272;5.134;2022-07-09T06:31:48;2.63;;;2.40;;
17436;SDS011;8836;52.272;5.134;2022-07-09T06:34:15;2.75;;;2.05;;
17436;SDS011;8836;52.272;5.134;2022-07-09T06:36:42;3.55;;;2.70;;
17436;SDS011;8836;52.272;5.134;2022-07-09T06:39:09;3.90;;;3.40;;
17436;SDS011;8836;52.272;5.134;2022-07-09T06:41:53;4.43;;;3.80;;
17436;SDS011;8836;52.272;5.134;2022-07-09T06:44:20;3.90;;;2.83;;
17436;SDS011;8836;52.272;5.134;2022-07-09T06:46:48;4.38;;;3.97;;
17436;SDS011;8836;52.272;5.134;2022-07-09T06:49:15;6.97;;;3.20;;
17436;SDS011;8836;52.272;5.134;2022-07-09T06:51:42;4.40;;;3.00;;
17436;SDS011;8836;52.272;5.134;2022-07-09T06:54:09;3.45;;;2.70;;
17436;SDS011;8836;52.272;5.134;2022-07-09T06:56:36;3.78;;;3.15;;
17436;SDS011;8836;52.272;5.134;2022-07-09T06:59:03;6.22;;;5.18;;
17436;SDS011;8836;52.272;5.134;2022-07-09T07:01:30;5.75;;;5.05;;
17436;SDS011;8836;52.272;5.134;2022-07-09T07:03:58;4.72;;;4.32;;
17436;SDS011;8836;52.272;5.134;2022-07-09T07:06:25;5.80;;;5.18;;
17436;SDS011;8836;52.272;5.134;2022-07-09T07:08:52;9.45;;;4.75;;
17436;SDS011;8836;52.272;5.134;2022-07-09T07:11:19;13.57;;;6.93;;
17436;SDS011;8836;52.272;5.134;2022-07-09T07:13:45;14.25;;;5.30;;
17436;SDS011;8836;52.272;5.134;2022-07-09T07:16:12;9.20;;;5.47;;
17436;SDS011;8836;52.272;5.134;2022-07-09T07:18:39;7.45;;;4.80;;
17436;SDS011;8836;52.272;5.134;2022-07-09T07:21:07;4.40;;;4.00;;
17436;SDS011;8836;52.272;5.134;2022-07-09T07:23:34;5.80;;;4.63;;
17436;SDS011;8836;52.272;5.134;2022-07-09T07:26:01;6.45;;;5.82;;
17436;SDS011;8836;52.272;5.134;2022-07-09T07:28:28;6.38;;;5.18;;
17436;SDS011;8836;52.272;5.134;2022-07-09T07:30:55;7.03;;;5.55;;
17436;SDS011;8836;52.272;5.134;2022-07-09T07:33:22;7.10;;;4.10;;
17436;SDS011;8836;52.272;5.134;2022-07-09T07:35:49;7.45;;;4.38;;
17436;SDS011;8836;52.272;5.134;2022-07-09T07:38:17;6.07;;;4.25;;
17436;SDS011;8836;52.272;5.134;2022-07-09T07:40:44;5.22;;;4.20;;
17436;SDS011;8836;52.272;5.134;2022-07-09T07:43:11;4.45;;;3.95;;
17436;SDS011;8836;52.272;5.134;2022-07-09T07:45:38;5.88;;;3.65;;
17436;SDS011;8836;52.272;5.134;2022-07-09T07:48:05;4.25;;;3.40;;
17436;SDS011;8836;52.272;5.134;2022-07-09T07:50:33;5.15;;;3.72;;
17436;SDS011;8836;52.272;5.134;2022-07-09T07:53:03;3.47;;;3.13;;
17436;SDS011;8836;52.272;5.134;2022-07-09T07:55:32;5.03;;;3.50;;
17436;SDS011;8836;52.272;5.134;2022-07-09T07:57:59;4.35;;;3.95;;
17436;SDS011;8836;52.272;5.134;2022-07-09T08:00:26;4.32;;;3.92;;
17436;SDS011;8836;52.272;5.134;2022-07-09T08:02:54;5.43;;;4.35;;
17436;SDS011;8836;52.272;5.134;2022-07-09T08:05:21;6.57;;;5.28;;
17436;SDS011;8836;52.272;5.134;2022-07-09T08:07:48;5.68;;;5.18;;
17436;SDS011;8836;52.272;5.134;2022-07-09T08:10:14;5.78;;;5.22;;
17436;SDS011;8836;52.272;5.134;2022-07-09T08:12:43;5.13;;;4.63;;
17436;SDS011;8836;52.272;5.134;2022-07-09T08:15:10;3.97;;;3.63;;
17436;SDS011;8836;52.272;5.134;2022-07-09T08:17:37;3.80;;;2.80;;
17436;SDS011;8836;52.272;5.134;2022-07-09T08:20:04;4.13;;;2.28;;
17436;SDS011;8836;52.272;5.134;2022-07-09T08:22:32;3.83;;;2.47;;
17436;SDS011;8836;52.272;5.134;2022-07-09T08:24:59;4.28;;;2.13;;
17436;SDS011;8836;52.272;5.134;2022-07-09T08:27:26;3.97;;;2.17;;
17436;SDS011;8836;52.272;5.134;2022-07-09T08:29:54;4.57;;;2.13;;
17436;SDS011;8836;52.272;5.134;2022-07-09T08:32:20;2.38;;;2.00;;
17436;SDS011;8836;52.272;5.134;2022-07-09T08:34:47;1.80;;;1.65;;
17436;SDS011;8836;52.272;5.134;2022-07-09T08:37:14;4.22;;;2.13;;
17436;SDS011;8836;52.272;5.134;2022-07-09T08:39:41;2.50;;;1.73;;
17436;SDS011;8836;52.272;5.134;2022-07-09T08:42:09;2.72;;;1.48;;
17436;SDS011;8836;52.272;5.134;2022-07-09T08:44:37;2.67;;;1.60;;
17436;SDS011;8836;52.272;5.134;2022-07-09T08:47:09;2.15;;;1.38;;
17436;SDS011;8836;52.272;5.134;2022-07-09T08:49:37;3.20;;;1.30;;
17436;SDS011;8836;52.272;5.134;2022-07-09T08:52:05;2.20;;;1.65;;
17436;SDS011;8836;52.272;5.134;2022-07-09T08:54:34;3.33;;;1.90;;
17436;SDS011;8836;52.272;5.134;2022-07-09T08:57:02;2.97;;;1.90;;
17436;SDS011;8836;52.272;5.134;2022-07-09T08:59:30;2.85;;;2.05;;
17436;SDS011;8836;52.272;5.134;2022-07-09T09:02:01;3.20;;;1.77;;
17436;SDS011;8836;52.272;5.134;2022-07-09T09:04:32;3.13;;;1.80;;
17436;SDS011;8836;52.272;5.134;2022-07-09T09:07:00;3.67;;;1.40;;
17436;SDS011;8836;52.272;5.134;2022-07-09T09:09:39;2.53;;;1.45;;
17436;SDS011;8836;52.272;5.134;2022-07-09T09:12:06;2.03;;;1.50;;
17436;SDS011;8836;52.272;5.134;2022-07-09T09:14:34;2.40;;;1.63;;
17436;SDS011;8836;52.272;5.134;2022-07-09T09:17:04;16.05;;;2.90;;
17436;SDS011;8836;52.272;5.134;2022-07-09T09:19:35;2.50;;;1.80;;
17436;SDS011;8836;52.272;5.134;2022-07-09T09:22:03;2.45;;;1.40;;
17436;SDS011;8836;52.272;5.134;2022-07-09T09:24:30;2.50;;;1.85;;
17436;SDS011;8836;52.272;5.134;2022-07-09T09:26:57;2.17;;;1.38;;
17436;SDS011;8836;52.272;5.134;2022-07-09T09:29:25;2.05;;;1.35;;
17436;SDS011;8836;52.272;5.134;2022-07-09T09:31:53;3.55;;;1.45;;
17436;SDS011;8836;52.272;5.134;2022-07-09T09:34:22;1.83;;;1.20;;
17436;SDS011;8836;52.272;5.134;2022-07-09T09:36:51;1.75;;;1.02;;
17436;SDS011;8836;52.272;5.134;2022-07-09T09:39:20;2.50;;;1.02;;
17436;SDS011;8836;52.272;5.134;2022-07-09T09:41:50;2.97;;;1.17;;
17436;SDS011;8836;52.272;5.134;2022-07-09T09:44:19;1.55;;;1.08;;
17436;SDS011;8836;52.272;5.134;2022-07-09T09:46:51;2.78;;;0.90;;
17436;SDS011;8836;52.272;5.134;2022-07-09T09:49:19;1.30;;;0.90;;
17436;SDS011;8836;52.272;5.134;2022-07-09T09:51:47;2.33;;;0.88;;
17436;SDS011;8836;52.272;5.134;2022-07-09T09:54:22;2.17;;;0.90;;
17436;SDS011;8836;52.272;5.134;2022-07-09T09:56:49;1.17;;;1.08;;
17436;SDS011;8836;52.272;5.134;2022-07-09T09:59:16;1.75;;;1.05;;
17436;SDS011;8836;52.272;5.134;2022-07-09T10:01:44;1.95;;;1.20;;
17436;SDS011;8836;52.272;5.134;2022-07-09T10:04:12;2.30;;;1.13;;
17436;SDS011;8836;52.272;5.134;2022-07-09T10:06:41;1.30;;;1.20;;
17436;SDS011;8836;52.272;5.134;2022-07-09T10:09:12;2.00;;;1.00;;
17436;SDS011;8836;52.272;5.134;2022-07-09T10:11:41;1.13;;;0.82;;
17436;SDS011;8836;52.272;5.134;2022-07-09T10:14:17;2.55;;;1.30;;
17436;SDS011;8836;52.272;5.134;2022-07-09T10:16:56;1.58;;;1.00;;
17436;SDS011;8836;52.272;5.134;2022-07-09T10:19:36;2.28;;;1.13;;
17436;SDS011;8836;52.272;5.134;2022-07-09T10:22:04;2.33;;;1.17;;
17436;SDS011;8836;52.272;5.134;2022-07-09T10:24:33;2.85;;;1.30;;
17436;SDS011;8836;52.272;5.134;2022-07-09T10:27:04;2.00;;;1.00;;
17436;SDS011;8836;52.272;5.134;2022-07-09T10:29:34;1.52;;;1.30;;
17436;SDS011;8836;52.272;5.134;2022-07-09T10:32:02;2.17;;;1.02;;
17436;SDS011;8836;52.272;5.134;2022-07-09T10:34:31;2.53;;;1.30;;
17436;SDS011;8836;52.272;5.134;2022-07-09T10:37:29;2.67;;;1.05;;
17436;SDS011;8836;52.272;5.134;2022-07-09T10:40:09;3.63;;;1.30;;
17436;SDS011;8836;52.272;5.134;2022-07-09T10:42:38;3.22;;;1.10;;
17436;SDS011;8836;52.272;5.134;2022-07-09T10:45:19;1.20;;;0.90;;
17436;SDS011;8836;52.272;5.134;2022-07-09T10:47:55;3.38;;;1.40;;
17436;SDS011;8836;52.272;5.134;2022-07-09T10:50:24;0.80;;;0.80;;
17436;SDS011;8836;52.272;5.134;2022-07-09T10:52:53;12.27;;;1.80;;
17436;SDS011;8836;52.272;5.134;2022-07-09T10:55:22;2.40;;;1.10;;
17436;SDS011;8836;52.272;5.134;2022-07-09T10:57:51;1.65;;;0.82;;
17436;SDS011;8836;52.272;5.134;2022-07-09T11:00:20;1.95;;;1.10;;
17436;SDS011;8836;52.272;5.134;2022-07-09T11:02:55;2.63;;;1.10;;
17436;SDS011;8836;52.272;5.134;2022-07-09T11:05:24;2.80;;;1.05;;
17436;SDS011;8836;52.272;5.134;2022-07-09T11:08:00;2.53;;;0.90;;
17436;SDS011;8836;52.272;5.134;2022-07-09T11:10:31;1.67;;;0.80;;
17436;SDS011;8836;52.272;5.134;2022-07-09T11:13:01;1.23;;;0.90;;
17436;SDS011;8836;52.272;5.134;2022-07-09T11:15:31;2.25;;;1.00;;
17436;SDS011;8836;52.272;5.134;2022-07-09T11:18:02;3.15;;;0.93;;
17436;SDS011;8836;52.272;5.134;2022-07-09T11:20:31;2.55;;;0.80;;
17436;SDS011;8836;52.272;5.134;2022-07-09T11:23:03;1.02;;;0.90;;
17436;SDS011;8836;52.272;5.134;2022-07-09T11:25:32;2.58;;;1.13;;
17436;SDS011;8836;52.272;5.134;2022-07-09T11:28:00;1.48;;;0.90;;
17436;SDS011;8836;52.272;5.134;2022-07-09T11:30:27;2.30;;;0.80;;
17436;SDS011;8836;52.272;5.134;2022-07-09T11:32:57;2.90;;;1.30;;
17436;SDS011;8836;52.272;5.134;2022-07-09T11:35:25;4.30;;;1.10;;
17436;SDS011;8836;52.272;5.134;2022-07-09T11:37:54;1.80;;;0.98;;
17436;SDS011;8836;52.272;5.134;2022-07-09T11:40:23;7.60;;;1.10;;
17436;SDS011;8836;52.272;5.134;2022-07-09T11:42:51;2.28;;;0.95;;
17436;SDS011;8836;52.272;5.134;2022-07-09T11:45:19;3.08;;;1.15;;
17436;SDS011;8836;52.272;5.134;2022-07-09T11:47:48;3.72;;;1.20;;
17436;SDS011;8836;52.272;5.134;2022-07-09T11:50:17;2.92;;;1.00;;
17436;SDS011;8836;52.272;5.134;2022-07-09T11:52:47;3.13;;;1.10;;
17436;SDS011;8836;52.272;5.134;2022-07-09T11:55:17;1.63;;;0.80;;
17436;SDS011;8836;52.272;5.134;2022-07-09T11:57:54;2.45;;;1.00;;
17436;SDS011;8836;52.272;5.134;2022-07-09T12:00:23;3.47;;;1.00;;
17436;SDS011;8836;52.272;5.134;2022-07-09T12:02:52;1.48;;;0.80;;
17436;SDS011;8836;52.272;5.134;2022-07-09T12:05:24;2.17;;;1.08;;
17436;SDS011;8836;52.272;5.134;2022-07-09T12:07:56;4.10;;;1.10;;
17436;SDS011;8836;52.272;5.134;2022-07-09T12:10:25;1.30;;;0.98;;
17436;SDS011;8836;52.272;5.134;2022-07-09T12:12:56;2.67;;;1.10;;
17436;SDS011;8836;52.272;5.134;2022-07-09T12:15:24;11.32;;;2.10;;
17436;SDS011;8836;52.272;5.134;2022-07-09T12:17:51;6.25;;;1.20;;
17436;SDS011;8836;52.272;5.134;2022-07-09T12:20:19;2.55;;;1.17;;
17436;SDS011;8836;52.272;5.134;2022-07-09T12:22:47;4.70;;;1.20;;
17436;SDS011;8836;52.272;5.134;2022-07-09T12:25:14;4.80;;;1.10;;
17436;SDS011;8836;52.272;5.134;2022-07-09T12:27:41;3.05;;;1.13;;
17436;SDS011;8836;52.272;5.134;2022-07-09T12:30:09;1.88;;;1.05;;
17436;SDS011;8836;52.272;5.134;2022-07-09T12:32:37;2.75;;;1.33;;
17436;SDS011;8836;52.272;5.134;2022-07-09T12:35:05;2.28;;;1.00;;
17436;SDS011;8836;52.272;5.134;2022-07-09T12:37:34;2.63;;;0.85;;
17436;SDS011;8836;52.272;5.134;2022-07-09T12:40:01;2.30;;;1.08;;
17436;SDS011;8836;52.272;5.134;2022-07-09T12:42:30;2.28;;;0.93;;
17436;SDS011;8836;52.272;5.134;2022-07-09T12:44:58;5.40;;;1.30;;
17436;SDS011;8836;52.272;5.134;2022-07-09T12:47:26;5.18;;;1.42;;
17436;SDS011;8836;52.272;5.134;2022-07-09T12:49:53;3.47;;;1.52;;
17436;SDS011;8836;52.272;5.134;2022-07-09T12:52:20;1.63;;;1.05;;
17436;SDS011;8836;52.272;5.134;2022-07-09T12:54:47;2.33;;;1.08;;
17436;SDS011;8836;52.272;5.134;2022-07-09T12:57:14;2.17;;;1.33;;
17436;SDS011;8836;52.272;5.134;2022-07-09T12:59:40;2.63;;;1.13;;
17436;SDS011;8836;52.272;5.134;2022-07-09T13:02:07;3.15;;;1.27;;
17436;SDS011;8836;52.272;5.134;2022-07-09T13:04:36;3.58;;;1.10;;
17436;SDS011;8836;52.272;5.134;2022-07-09T13:07:03;3.15;;;1.50;;
17436;SDS011;8836;52.272;5.134;2022-07-09T13:09:30;1.35;;;1.00;;
17436;SDS011;8836;52.272;5.134;2022-07-09T13:11:57;2.95;;;1.10;;
17436;SDS011;8836;52.272;5.134;2022-07-09T13:14:24;2.35;;;0.93;;
17436;SDS011;8836;52.272;5.134;2022-07-09T13:16:51;2.42;;;0.95;;
17436;SDS011;8836;52.272;5.134;2022-07-09T13:19:17;3.00;;;1.58;;
17436;SDS011;8836;52.272;5.134;2022-07-09T13:21:46;3.63;;;1.20;;
17436;SDS011;8836;52.272;5.134;2022-07-09T13:24:13;4.57;;;1.25;;
17436;SDS011;8836;52.272;5.134;2022-07-09T13:26:40;4.20;;;1.00;;
17436;SDS011;8836;52.272;5.134;2022-07-09T13:29:07;5.78;;;1.27;;
17436;SDS011;8836;52.272;5.134;2022-07-09T13:31:34;4.00;;;1.67;;
17436;SDS011;8836;52.272;5.134;2022-07-09T13:34:01;4.38;;;1.80;;
17436;SDS011;8836;52.272;5.134;2022-07-09T13:36:28;5.30;;;1.75;;
17436;SDS011;8836;52.272;5.134;2022-07-09T13:38:57;5.40;;;1.60;;
17436;SDS011;8836;52.272;5.134;2022-07-09T13:41:23;4.00;;;1.60;;
17436;SDS011;8836;52.272;5.134;2022-07-09T13:43:50;7.85;;;1.85;;
17436;SDS011;8836;52.272;5.134;2022-07-09T13:46:17;5.45;;;1.50;;
17436;SDS011;8836;52.272;5.134;2022-07-09T13:48:44;4.75;;;1.40;;
17436;SDS011;8836;52.272;5.134;2022-07-09T13:51:11;5.05;;;1.48;;
17436;SDS011;8836;52.272;5.134;2022-07-09T13:53:38;8.07;;;1.60;;
17436;SDS011;8836;52.272;5.134;2022-07-09T13:56:07;3.92;;;1.40;;
17436;SDS011;8836;52.272;5.134;2022-07-09T13:58:34;3.15;;;1.15;;
17436;SDS011;8836;52.272;5.134;2022-07-09T14:01:01;3.30;;;1.55;;
17436;SDS011;8836;52.272;5.134;2022-07-09T14:03:28;4.68;;;1.30;;
17436;SDS011;8836;52.272;5.134;2022-07-09T14:05:55;3.88;;;1.25;;
17436;SDS011;8836;52.272;5.134;2022-07-09T14:08:22;5.95;;;1.60;;
17436;SDS011;8836;52.272;5.134;2022-07-09T14:10:49;4.32;;;1.52;;
17436;SDS011;8836;52.272;5.134;2022-07-09T14:13:24;5.93;;;1.45;;
17436;SDS011;8836;52.272;5.134;2022-07-09T14:15:52;2.80;;;1.38;;
17436;SDS011;8836;52.272;5.134;2022-07-09T14:18:20;3.38;;;1.15;;
17436;SDS011;8836;52.272;5.134;2022-07-09T14:20:47;3.47;;;1.17;;
17436;SDS011;8836;52.272;5.134;2022-07-09T14:23:15;2.58;;;1.27;;
17436;SDS011;8836;52.272;5.134;2022-07-09T14:25:41;3.88;;;1.33;;
17436;SDS011;8836;52.272;5.134;2022-07-09T14:28:09;4.47;;;1.45;;
17436;SDS011;8836;52.272;5.134;2022-07-09T14:30:37;5.47;;;1.85;;
17436;SDS011;8836;52.272;5.134;2022-07-09T14:33:04;1.88;;;1.30;;
17436;SDS011;8836;52.272;5.134;2022-07-09T14:35:31;2.55;;;1.30;;
17436;SDS011;8836;52.272;5.134;2022-07-09T14:37:58;5.70;;;1.38;;
17436;SDS011;8836;52.272;5.134;2022-07-09T14:40:25;3.55;;;1.08;;
17436;SDS011;8836;52.272;5.134;2022-07-09T14:42:52;1.73;;;1.10;;
17436;SDS011;8836;52.272;5.134;2022-07-09T14:45:19;3.60;;;1.17;;
17436;SDS011;8836;52.272;5.134;2022-07-09T14:47:50;3.75;;;1.40;;
17436;SDS011;8836;52.272;5.134;2022-07-09T14:50:16;2.28;;;1.02;;
17436;SDS011;8836;52.272;5.134;2022-07-09T14:52:43;3.35;;;1.30;;
17436;SDS011;8836;52.272;5.134;2022-07-09T14:55:11;4.05;;;1.30;;
17436;SDS011;8836;52.272;5.134;2022-07-09T14:57:38;6.35;;;2.33;;
17436;SDS011;8836;52.272;5.134;2022-07-09T15:00:06;5.05;;;1.80;;
17436;SDS011;8836;52.272;5.134;2022-07-09T15:02:33;5.78;;;2.58;;
17436;SDS011;8836;52.272;5.134;2022-07-09T15:05:02;3.25;;;1.30;;